aviador You're here:

KOKK Decoded Metar

KOKOMO in IN, USA
Report Time2018-07-19 18:56:00
UTC Time2018-07-19 19:20:20
Flight Rules vfr VFR
Wind170° at 10 kt
W.Decomp.*RWY 14: 8.5 kt HW 5.3 kt RCW
RWY 23: 5.3 kt HW 8.5 kt LCW
W.Rank170° ranks 12
Current wind is above 170° avg. (8.1)
Visibility9999 m
Phenomena:N/A
Clouds:Few 055 Hf
Expected CloudBase > 4,800 ft AGL from Temp-Dew spread
CeilingNone
Temp28°C (ISA +15)
Dew Point16°C (48% RH)
Heat Index28.3°C
AAT26.4°C
QNH1016 hPa
Density Alt2,657 ft
Elevation830 ft
Report Wrong Elevation
Raw Report
KOKK 191856Z AUTO 17010KT 10SM FEW055 28/16 A3000 RMK AO2 SLP156
T02830161=

Extra information for KOKK:More info

Metar Taf Metar & Taf Last 4 Metars F.Rules Stats Wind Profile Meteogram Temp Stats Airport Information Weather charts Add Link Nearby VenuesMetar ALERT Operation Metar Decoded Social comments

AIRNAV info for KOKK